sensor_id;sensor_type;location;lat;lon;timestamp;P1;durP1;ratioP1;P2;durP2;ratioP2
29574;SDS011;16507;51.046;6.406;2022-07-03T00:00:41;2.00;;;0.70;;
29574;SDS011;16507;51.046;6.406;2022-07-03T00:03:07;4.15;;;0.82;;
29574;SDS011;16507;51.046;6.406;2022-07-03T00:05:32;7.68;;;0.77;;
29574;SDS011;16507;51.046;6.406;2022-07-03T00:07:58;4.63;;;0.80;;
29574;SDS011;16507;51.046;6.406;2022-07-03T00:10:24;3.08;;;0.80;;
29574;SDS011;16507;51.046;6.406;2022-07-03T00:12:49;4.18;;;0.85;;
29574;SDS011;16507;51.046;6.406;2022-07-03T00:15:15;1.30;;;0.90;;
29574;SDS011;16507;51.046;6.406;2022-07-03T00:17:41;1.63;;;0.85;;
29574;SDS011;16507;51.046;6.406;2022-07-03T00:20:07;0.88;;;0.70;;
29574;SDS011;16507;51.046;6.406;2022-07-03T00:22:33;3.38;;;0.75;;
29574;SDS011;16507;51.046;6.406;2022-07-03T00:25:04;1.15;;;0.90;;
29574;SDS011;16507;51.046;6.406;2022-07-03T00:27:32;2.40;;;0.90;;
29574;SDS011;16507;51.046;6.406;2022-07-03T00:29:59;1.48;;;0.73;;
29574;SDS011;16507;51.046;6.406;2022-07-03T00:32:26;3.30;;;1.00;;
29574;SDS011;16507;51.046;6.406;2022-07-03T00:34:53;16.35;;;1.70;;
29574;SDS011;16507;51.046;6.406;2022-07-03T00:37:20;2.08;;;0.63;;
29574;SDS011;16507;51.046;6.406;2022-07-03T00:39:47;8.27;;;1.30;;
29574;SDS011;16507;51.046;6.406;2022-07-03T00:42:14;2.53;;;0.80;;
29574;SDS011;16507;51.046;6.406;2022-07-03T00:44:45;4.97;;;0.98;;
29574;SDS011;16507;51.046;6.406;2022-07-03T00:47:13;1.30;;;0.70;;
29574;SDS011;16507;51.046;6.406;2022-07-03T00:49:40;3.08;;;0.73;;
29574;SDS011;16507;51.046;6.406;2022-07-03T00:52:11;1.75;;;0.60;;
29574;SDS011;16507;51.046;6.406;2022-07-03T00:54:38;2.65;;;0.80;;
29574;SDS011;16507;51.046;6.406;2022-07-03T00:57:08;7.40;;;1.00;;
29574;SDS011;16507;51.046;6.406;2022-07-03T00:59:40;7.45;;;1.30;;
29574;SDS011;16507;51.046;6.406;2022-07-03T01:02:06;0.73;;;0.65;;
29574;SDS011;16507;51.046;6.406;2022-07-03T01:07:25;3.70;;;0.70;;
29574;SDS011;16507;51.046;6.406;2022-07-03T01:10:16;3.33;;;0.70;;
29574;SDS011;16507;51.046;6.406;2022-07-03T01:13:00;12.63;;;0.75;;
29574;SDS011;16507;51.046;6.406;2022-07-03T01:21:00;3.92;;;0.80;;
29574;SDS011;16507;51.046;6.406;2022-07-03T01:23:56;2.65;;;1.00;;
29574;SDS011;16507;51.046;6.406;2022-07-03T01:26:22;2.72;;;0.85;;
29574;SDS011;16507;51.046;6.406;2022-07-03T01:28:52;3.92;;;0.90;;
29574;SDS011;16507;51.046;6.406;2022-07-03T01:31:19;8.48;;;1.20;;
29574;SDS011;16507;51.046;6.406;2022-07-03T01:33:45;2.25;;;0.90;;
29574;SDS011;16507;51.046;6.406;2022-07-03T01:36:15;2.20;;;1.20;;
29574;SDS011;16507;51.046;6.406;2022-07-03T01:38:42;1.77;;;0.90;;
29574;SDS011;16507;51.046;6.406;2022-07-03T01:41:09;3.72;;;1.02;;
29574;SDS011;16507;51.046;6.406;2022-07-03T01:43:37;1.60;;;0.85;;
29574;SDS011;16507;51.046;6.406;2022-07-03T01:46:06;1.63;;;1.30;;
29574;SDS011;16507;51.046;6.406;2022-07-03T01:48:32;1.80;;;1.08;;
29574;SDS011;16507;51.046;6.406;2022-07-03T01:50:58;0.90;;;0.90;;
29574;SDS011;16507;51.046;6.406;2022-07-03T01:53:26;8.57;;;1.58;;
29574;SDS011;16507;51.046;6.406;2022-07-03T01:55:57;1.70;;;0.93;;
29574;SDS011;16507;51.046;6.406;2022-07-03T01:58:24;0.82;;;0.75;;
29574;SDS011;16507;51.046;6.406;2022-07-03T02:00:52;1.40;;;1.00;;
29574;SDS011;16507;51.046;6.406;2022-07-03T02:03:42;2.70;;;1.05;;
29574;SDS011;16507;51.046;6.406;2022-07-03T02:06:38;5.15;;;1.10;;
29574;SDS011;16507;51.046;6.406;2022-07-03T02:09:08;2.88;;;1.27;;
29574;SDS011;16507;51.046;6.406;2022-07-03T02:11:39;4.07;;;0.90;;
29574;SDS011;16507;51.046;6.406;2022-07-03T02:22:18;8.15;;;1.58;;
29574;SDS011;16507;51.046;6.406;2022-07-03T02:24:46;1.73;;;1.20;;
29574;SDS011;16507;51.046;6.406;2022-07-03T02:27:22;2.17;;;1.10;;
29574;SDS011;16507;51.046;6.406;2022-07-03T02:32:30;2.80;;;0.98;;
29574;SDS011;16507;51.046;6.406;2022-07-03T02:35:22;1.20;;;1.10;;
29574;SDS011;16507;51.046;6.406;2022-07-03T02:37:56;3.20;;;1.30;;
29574;SDS011;16507;51.046;6.406;2022-07-03T02:40:40;1.90;;;1.40;;
29574;SDS011;16507;51.046;6.406;2022-07-03T02:46:02;21.70;;;3.00;;
29574;SDS011;16507;51.046;6.406;2022-07-03T02:49:02;2.58;;;1.30;;
29574;SDS011;16507;51.046;6.406;2022-07-03T02:51:40;6.32;;;1.63;;
29574;SDS011;16507;51.046;6.406;2022-07-03T02:54:09;2.08;;;1.40;;
29574;SDS011;16507;51.046;6.406;2022-07-03T02:56:58;9.40;;;1.85;;
29574;SDS011;16507;51.046;6.406;2022-07-03T03:04:49;10.32;;;2.05;;
29574;SDS011;16507;51.046;6.406;2022-07-03T03:07:23;10.75;;;1.52;;
29574;SDS011;16507;51.046;6.406;2022-07-03T03:09:54;11.75;;;2.08;;
29574;SDS011;16507;51.046;6.406;2022-07-03T03:12:23;6.80;;;2.08;;
29574;SDS011;16507;51.046;6.406;2022-07-03T03:15:00;2.55;;;1.70;;
29574;SDS011;16507;51.046;6.406;2022-07-03T03:17:28;5.38;;;2.08;;
29574;SDS011;16507;51.046;6.406;2022-07-03T03:20:01;6.15;;;1.98;;
29574;SDS011;16507;51.046;6.406;2022-07-03T03:22:29;11.85;;;2.75;;
29574;SDS011;16507;51.046;6.406;2022-07-03T03:25:02;8.70;;;1.90;;
29574;SDS011;16507;51.046;6.406;2022-07-03T03:27:28;13.35;;;2.75;;
29574;SDS011;16507;51.046;6.406;2022-07-03T03:29:54;10.65;;;2.67;;
29574;SDS011;16507;51.046;6.406;2022-07-03T03:32:21;11.80;;;2.67;;
29574;SDS011;16507;51.046;6.406;2022-07-03T03:34:47;10.35;;;2.40;;
29574;SDS011;16507;51.046;6.406;2022-07-03T03:37:14;7.90;;;2.75;;
29574;SDS011;16507;51.046;6.406;2022-07-03T03:39:40;5.80;;;2.60;;
29574;SDS011;16507;51.046;6.406;2022-07-03T03:42:06;6.10;;;2.38;;
29574;SDS011;16507;51.046;6.406;2022-07-03T03:44:33;6.78;;;2.10;;
29574;SDS011;16507;51.046;6.406;2022-07-03T03:46:59;4.22;;;1.90;;
29574;SDS011;16507;51.046;6.406;2022-07-03T03:49:24;3.45;;;1.55;;
29574;SDS011;16507;51.046;6.406;2022-07-03T03:51:50;6.38;;;1.70;;
29574;SDS011;16507;51.046;6.406;2022-07-03T03:54:17;2.75;;;1.42;;
29574;SDS011;16507;51.046;6.406;2022-07-03T03:56:43;5.80;;;1.92;;
29574;SDS011;16507;51.046;6.406;2022-07-03T03:59:09;6.53;;;1.90;;
29574;SDS011;16507;51.046;6.406;2022-07-03T04:01:34;4.35;;;1.70;;
29574;SDS011;16507;51.046;6.406;2022-07-03T04:04:00;5.05;;;1.90;;
29574;SDS011;16507;51.046;6.406;2022-07-03T04:06:26;3.03;;;1.83;;
29574;SDS011;16507;51.046;6.406;2022-07-03T04:08:51;3.67;;;1.98;;
29574;SDS011;16507;51.046;6.406;2022-07-03T04:11:17;3.75;;;1.92;;
29574;SDS011;16507;51.046;6.406;2022-07-03T04:13:43;10.02;;;2.22;;
29574;SDS011;16507;51.046;6.406;2022-07-03T04:16:10;4.80;;;2.10;;
29574;SDS011;16507;51.046;6.406;2022-07-03T04:18:36;3.75;;;2.13;;
29574;SDS011;16507;51.046;6.406;2022-07-03T04:21:02;2.65;;;2.10;;
29574;SDS011;16507;51.046;6.406;2022-07-03T04:23:28;3.78;;;2.60;;
29574;SDS011;16507;51.046;6.406;2022-07-03T04:25:53;2.58;;;1.95;;
29574;SDS011;16507;51.046;6.406;2022-07-03T04:28:19;2.47;;;2.00;;
29574;SDS011;16507;51.046;6.406;2022-07-03T04:30:45;3.42;;;2.42;;
29574;SDS011;16507;51.046;6.406;2022-07-03T04:33:10;3.28;;;2.03;;
29574;SDS011;16507;51.046;6.406;2022-07-03T04:35:36;8.70;;;1.80;;
29574;SDS011;16507;51.046;6.406;2022-07-03T04:38:03;3.22;;;2.15;;
29574;SDS011;16507;51.046;6.406;2022-07-03T04:40:28;3.97;;;2.00;;
29574;SDS011;16507;51.046;6.406;2022-07-03T04:42:54;3.58;;;2.30;;
29574;SDS011;16507;51.046;6.406;2022-07-03T04:45:20;4.25;;;1.88;;
29574;SDS011;16507;51.046;6.406;2022-07-03T04:47:46;3.10;;;2.25;;
29574;SDS011;16507;51.046;6.406;2022-07-03T04:50:11;4.65;;;1.80;;
29574;SDS011;16507;51.046;6.406;2022-07-03T04:52:37;5.00;;;2.08;;
29574;SDS011;16507;51.046;6.406;2022-07-03T04:55:03;10.13;;;2.33;;
29574;SDS011;16507;51.046;6.406;2022-07-03T04:57:29;2.50;;;2.20;;
29574;SDS011;16507;51.046;6.406;2022-07-03T04:59:54;8.85;;;2.10;;
29574;SDS011;16507;51.046;6.406;2022-07-03T05:02:20;12.30;;;2.33;;
29574;SDS011;16507;51.046;6.406;2022-07-03T05:04:46;3.42;;;1.92;;
29574;SDS011;16507;51.046;6.406;2022-07-03T05:07:11;5.65;;;2.50;;
29574;SDS011;16507;51.046;6.406;2022-07-03T05:09:37;4.38;;;2.60;;
29574;SDS011;16507;51.046;6.406;2022-07-03T05:12:02;4.30;;;2.28;;
29574;SDS011;16507;51.046;6.406;2022-07-03T05:14:29;7.38;;;2.15;;
29574;SDS011;16507;51.046;6.406;2022-07-03T05:16:54;10.10;;;3.08;;
29574;SDS011;16507;51.046;6.406;2022-07-03T05:19:20;2.95;;;2.40;;
29574;SDS011;16507;51.046;6.406;2022-07-03T05:21:45;3.53;;;2.10;;
29574;SDS011;16507;51.046;6.406;2022-07-03T05:24:11;3.53;;;2.70;;
29574;SDS011;16507;51.046;6.406;2022-07-03T05:26:36;4.53;;;2.55;;
29574;SDS011;16507;51.046;6.406;2022-07-03T05:29:02;7.65;;;2.85;;
29574;SDS011;16507;51.046;6.406;2022-07-03T05:31:28;4.70;;;2.50;;
29574;SDS011;16507;51.046;6.406;2022-07-03T05:33:53;6.40;;;2.72;;
29574;SDS011;16507;51.046;6.406;2022-07-03T05:36:19;3.50;;;3.20;;
29574;SDS011;16507;51.046;6.406;2022-07-03T05:38:45;3.08;;;2.70;;
29574;SDS011;16507;51.046;6.406;2022-07-03T05:41:28;2.70;;;2.50;;
29574;SDS011;16507;51.046;6.406;2022-07-03T05:43:54;3.38;;;2.75;;
29574;SDS011;16507;51.046;6.406;2022-07-03T05:46:20;3.20;;;2.97;;
29574;SDS011;16507;51.046;6.406;2022-07-03T05:48:45;4.65;;;3.38;;
29574;SDS011;16507;51.046;6.406;2022-07-03T05:51:11;4.80;;;3.75;;
29574;SDS011;16507;51.046;6.406;2022-07-03T05:53:37;5.82;;;2.88;;
29574;SDS011;16507;51.046;6.406;2022-07-03T05:56:02;4.40;;;3.40;;
29574;SDS011;16507;51.046;6.406;2022-07-03T05:58:28;4.85;;;3.08;;
29574;SDS011;16507;51.046;6.406;2022-07-03T06:00:56;8.30;;;3.38;;
29574;SDS011;16507;51.046;6.406;2022-07-03T06:03:22;3.47;;;2.78;;
29574;SDS011;16507;51.046;6.406;2022-07-03T06:05:48;4.78;;;3.40;;
29574;SDS011;16507;51.046;6.406;2022-07-03T06:08:13;4.32;;;3.28;;
29574;SDS011;16507;51.046;6.406;2022-07-03T06:10:39;8.57;;;3.35;;
29574;SDS011;16507;51.046;6.406;2022-07-03T06:13:05;4.57;;;2.72;;
29574;SDS011;16507;51.046;6.406;2022-07-03T06:15:31;4.60;;;3.00;;
29574;SDS011;16507;51.046;6.406;2022-07-03T06:17:57;8.43;;;3.53;;
29574;SDS011;16507;51.046;6.406;2022-07-03T06:20:23;5.15;;;2.70;;
29574;SDS011;16507;51.046;6.406;2022-07-03T06:22:48;3.90;;;2.60;;
29574;SDS011;16507;51.046;6.406;2022-07-03T06:25:15;5.07;;;2.30;;
29574;SDS011;16507;51.046;6.406;2022-07-03T06:27:40;8.80;;;2.10;;
29574;SDS011;16507;51.046;6.406;2022-07-03T06:30:07;2.50;;;1.80;;
29574;SDS011;16507;51.046;6.406;2022-07-03T06:32:35;3.50;;;1.50;;
29574;SDS011;16507;51.046;6.406;2022-07-03T06:35:00;9.07;;;1.50;;
29574;SDS011;16507;51.046;6.406;2022-07-03T06:37:26;6.80;;;1.48;;
29574;SDS011;16507;51.046;6.406;2022-07-03T06:39:52;2.42;;;1.25;;
29574;SDS011;16507;51.046;6.406;2022-07-03T06:42:20;2.38;;;1.60;;
29574;SDS011;16507;51.046;6.406;2022-07-03T06:44:46;4.13;;;1.23;;
29574;SDS011;16507;51.046;6.406;2022-07-03T06:47:11;5.28;;;1.05;;
29574;SDS011;16507;51.046;6.406;2022-07-03T06:49:37;1.73;;;0.98;;
29574;SDS011;16507;51.046;6.406;2022-07-03T06:52:03;5.35;;;1.20;;
29574;SDS011;16507;51.046;6.406;2022-07-03T06:54:28;5.15;;;1.00;;
29574;SDS011;16507;51.046;6.406;2022-07-03T06:56:54;2.13;;;1.00;;
29574;SDS011;16507;51.046;6.406;2022-07-03T06:59:20;1.17;;;1.00;;
29574;SDS011;16507;51.046;6.406;2022-07-03T07:01:45;2.72;;;1.15;;
29574;SDS011;16507;51.046;6.406;2022-07-03T07:04:11;3.25;;;0.90;;
29574;SDS011;16507;51.046;6.406;2022-07-03T07:06:37;1.48;;;0.85;;
29574;SDS011;16507;51.046;6.406;2022-07-03T07:09:03;10.75;;;1.00;;
29574;SDS011;16507;51.046;6.406;2022-07-03T07:11:29;2.47;;;0.90;;
29574;SDS011;16507;51.046;6.406;2022-07-03T07:13:55;7.80;;;1.38;;
29574;SDS011;16507;51.046;6.406;2022-07-03T07:16:20;2.50;;;0.90;;
29574;SDS011;16507;51.046;6.406;2022-07-03T07:18:46;1.58;;;1.00;;
29574;SDS011;16507;51.046;6.406;2022-07-03T07:21:12;2.25;;;0.80;;
29574;SDS011;16507;51.046;6.406;2022-07-03T07:23:37;1.83;;;1.00;;
29574;SDS011;16507;51.046;6.406;2022-07-03T07:26:03;2.85;;;0.93;;
29574;SDS011;16507;51.046;6.406;2022-07-03T07:28:29;3.38;;;0.90;;
29574;SDS011;16507;51.046;6.406;2022-07-03T07:30:55;1.40;;;1.30;;
29574;SDS011;16507;51.046;6.406;2022-07-03T07:33:22;2.30;;;1.10;;
29574;SDS011;16507;51.046;6.406;2022-07-03T07:35:48;3.55;;;1.10;;
29574;SDS011;16507;51.046;6.406;2022-07-03T07:38:14;2.40;;;1.27;;
29574;SDS011;16507;51.046;6.406;2022-07-03T07:40:40;4.13;;;1.42;;
29574;SDS011;16507;51.046;6.406;2022-07-03T07:43:05;1.15;;;0.90;;
29574;SDS011;16507;51.046;6.406;2022-07-03T07:45:31;4.00;;;1.20;;
29574;SDS011;16507;51.046;6.406;2022-07-03T07:47:57;1.13;;;1.02;;
29574;SDS011;16507;51.046;6.406;2022-07-03T07:50:22;6.20;;;1.10;;
29574;SDS011;16507;51.046;6.406;2022-07-03T07:52:48;2.28;;;1.60;;
29574;SDS011;16507;51.046;6.406;2022-07-03T07:55:14;3.95;;;1.25;;
29574;SDS011;16507;51.046;6.406;2022-07-03T07:57:40;2.08;;;1.73;;
29574;SDS011;16507;51.046;6.406;2022-07-03T08:02:36;2.80;;;1.75;;
29574;SDS011;16507;51.046;6.406;2022-07-03T08:05:20;9.90;;;1.83;;
29574;SDS011;16507;51.046;6.406;2022-07-03T08:08:04;2.92;;;2.28;;
29574;SDS011;16507;51.046;6.406;2022-07-03T08:10:41;2.60;;;2.40;;
29574;SDS011;16507;51.046;6.406;2022-07-03T08:13:07;3.90;;;1.65;;
29574;SDS011;16507;51.046;6.406;2022-07-03T08:15:33;2.30;;;1.80;;
29574;SDS011;16507;51.046;6.406;2022-07-03T08:17:59;5.60;;;1.80;;
29574;SDS011;16507;51.046;6.406;2022-07-03T08:20:25;2.30;;;1.55;;
29574;SDS011;16507;51.046;6.406;2022-07-03T08:22:51;5.47;;;1.90;;
29574;SDS011;16507;51.046;6.406;2022-07-03T08:25:17;2.45;;;1.70;;
29574;SDS011;16507;51.046;6.406;2022-07-03T08:27:42;1.80;;;1.35;;
29574;SDS011;16507;51.046;6.406;2022-07-03T08:30:08;2.25;;;1.60;;
29574;SDS011;16507;51.046;6.406;2022-07-03T08:32:34;3.22;;;1.98;;
29574;SDS011;16507;51.046;6.406;2022-07-03T08:35:00;3.58;;;1.60;;
29574;SDS011;16507;51.046;6.406;2022-07-03T08:37:26;3.80;;;1.77;;
29574;SDS011;16507;51.046;6.406;2022-07-03T08:39:52;5.13;;;1.33;;
29574;SDS011;16507;51.046;6.406;2022-07-03T08:42:17;2.80;;;1.58;;
29574;SDS011;16507;51.046;6.406;2022-07-03T08:44:46;3.05;;;1.30;;
29574;SDS011;16507;51.046;6.406;2022-07-03T08:47:12;1.73;;;0.95;;
29574;SDS011;16507;51.046;6.406;2022-07-03T08:49:38;4.63;;;1.48;;
29574;SDS011;16507;51.046;6.406;2022-07-03T08:52:06;1.85;;;1.60;;
29574;SDS011;16507;51.046;6.406;2022-07-03T08:54:34;1.75;;;1.25;;
29574;SDS011;16507;51.046;6.406;2022-07-03T08:57:00;4.18;;;1.52;;
29574;SDS011;16507;51.046;6.406;2022-07-03T08:59:31;3.03;;;1.40;;
29574;SDS011;16507;51.046;6.406;2022-07-03T09:02:02;3.30;;;1.10;;
29574;SDS011;16507;51.046;6.406;2022-07-03T09:04:30;1.10;;;1.00;;
29574;SDS011;16507;51.046;6.406;2022-07-03T09:06:56;1.70;;;1.10;;
29574;SDS011;16507;51.046;6.406;2022-07-03T09:09:23;8.35;;;1.50;;
29574;SDS011;16507;51.046;6.406;2022-07-03T09:11:49;2.42;;;0.90;;
29574;SDS011;16507;51.046;6.406;2022-07-03T09:14:16;4.68;;;1.20;;
29574;SDS011;16507;51.046;6.406;2022-07-03T09:16:41;2.45;;;0.90;;
29574;SDS011;16507;51.046;6.406;2022-07-03T09:19:07;1.83;;;1.20;;
29574;SDS011;16507;51.046;6.406;2022-07-03T09:21:40;3.58;;;1.17;;
29574;SDS011;16507;51.046;6.406;2022-07-03T09:24:07;1.10;;;1.00;;
29574;SDS011;16507;51.046;6.406;2022-07-03T09:26:34;1.85;;;0.98;;
29574;SDS011;16507;51.046;6.406;2022-07-03T09:29:01;1.85;;;1.33;;
29574;SDS011;16507;51.046;6.406;2022-07-03T09:31:29;1.85;;;1.05;;
29574;SDS011;16507;51.046;6.406;2022-07-03T09:34:02;3.13;;;1.00;;
29574;SDS011;16507;51.046;6.406;2022-07-03T09:39:16;3.53;;;1.13;;
29574;SDS011;16507;51.046;6.406;2022-07-03T09:41:51;5.22;;;1.10;;
29574;SDS011;16507;51.046;6.406;2022-07-03T09:44:29;2.45;;;1.13;;
29574;SDS011;16507;51.046;6.406;2022-07-03T09:49:46;3.42;;;1.25;;
29574;SDS011;16507;51.046;6.406;2022-07-03T09:54:57;1.80;;;1.05;;
29574;SDS011;16507;51.046;6.406;2022-07-03T09:57:26;2.38;;;1.40;;
29574;SDS011;16507;51.046;6.406;2022-07-03T10:00:27;2.80;;;1.13;;
29574;SDS011;16507;51.046;6.406;2022-07-03T10:02:53;3.97;;;1.10;;
29574;SDS011;16507;51.046;6.406;2022-07-03T10:05:22;3.13;;;1.20;;
29574;SDS011;16507;51.046;6.406;2022-07-03T10:07:53;8.52;;;1.20;;
29574;SDS011;16507;51.046;6.406;2022-07-03T10:10:30;4.50;;;1.50;;
29574;SDS011;16507;51.046;6.406;2022-07-03T10:12:57;2.10;;;1.30;;
29574;SDS011;16507;51.046;6.406;2022-07-03T10:15:24;1.40;;;1.02;;
29574;SDS011;16507;51.046;6.406;2022-07-03T10:17:51;3.17;;;0.90;;
29574;SDS011;16507;51.046;6.406;2022-07-03T10:20:22;4.50;;;1.05;;
29574;SDS011;16507;51.046;6.406;2022-07-03T10:25:17;2.53;;;1.40;;
29574;SDS011;16507;51.046;6.406;2022-07-03T10:27:46;1.83;;;1.20;;
29574;SDS011;16507;51.046;6.406;2022-07-03T10:30:16;1.65;;;0.93;;
29574;SDS011;16507;51.046;6.406;2022-07-03T10:32:44;3.13;;;1.23;;
29574;SDS011;16507;51.046;6.406;2022-07-03T10:35:13;3.10;;;1.25;;
29574;SDS011;16507;51.046;6.406;2022-07-03T10:40:28;1.05;;;0.80;;
29574;SDS011;16507;51.046;6.406;2022-07-03T10:43:29;4.90;;;0.80;;
29574;SDS011;16507;51.046;6.406;2022-07-03T10:46:17;1.13;;;0.70;;
29574;SDS011;16507;51.046;6.406;2022-07-03T10:54:31;2.33;;;0.80;;
29574;SDS011;16507;51.046;6.406;2022-07-03T11:02:27;0.82;;;0.70;;
29574;SDS011;16507;51.046;6.406;2022-07-03T11:07:21;5.53;;;0.90;;
29574;SDS011;16507;51.046;6.406;2022-07-03T11:10:28;2.40;;;0.73;;
29574;SDS011;16507;51.046;6.406;2022-07-03T11:15:32;2.28;;;0.80;;
29574;SDS011;16507;51.046;6.406;2022-07-03T11:25:48;1.15;;;0.70;;
29574;SDS011;16507;51.046;6.406;2022-07-03T11:41:25;0.60;;;0.40;;
29574;SDS011;16507;51.046;6.406;2022-07-03T11:43:54;1.67;;;0.40;;
29574;SDS011;16507;51.046;6.406;2022-07-03T11:46:27;2.45;;;0.65;;
29574;SDS011;16507;51.046;6.406;2022-07-03T11:49:12;0.63;;;0.40;;
29574;SDS011;16507;51.046;6.406;2022-07-03T11:54:23;1.25;;;0.50;;
29574;SDS011;16507;51.046;6.406;2022-07-03T11:56:49;0.82;;;0.57;;
29574;SDS011;16507;51.046;6.406;2022-07-03T11:59:17;1.30;;;0.75;;
29574;SDS011;16507;51.046;6.406;2022-07-03T12:01:44;0.57;;;0.55;;
29574;SDS011;16507;51.046;6.406;2022-07-03T12:06:49;0.85;;;0.40;;
29574;SDS011;16507;51.046;6.406;2022-07-03T12:09:17;1.23;;;0.75;;
29574;SDS011;16507;51.046;6.406;2022-07-03T12:12:09;0.77;;;0.40;;
29574;SDS011;16507;51.046;6.406;2022-07-03T12:17:01;0.90;;;0.60;;
29574;SDS011;16507;51.046;6.406;2022-07-03T12:19:27;1.40;;;0.70;;
29574;SDS011;16507;51.046;6.406;2022-07-03T12:21:53;3.30;;;0.60;;
29574;SDS011;16507;51.046;6.406;2022-07-03T12:24:19;2.53;;;0.73;;
29574;SDS011;16507;51.046;6.406;2022-07-03T12:26:46;3.80;;;0.52;;
29574;SDS011;16507;51.046;6.406;2022-07-03T12:29:41;5.55;;;0.50;;
29574;SDS011;16507;51.046;6.406;2022-07-03T12:32:10;1.55;;;0.43;;
29574;SDS011;16507;51.046;6.406;2022-07-03T12:34:40;1.83;;;0.60;;
29574;SDS011;16507;51.046;6.406;2022-07-03T12:37:09;4.82;;;0.50;;
29574;SDS011;16507;51.046;6.406;2022-07-03T12:39:47;2.17;;;0.50;;
29574;SDS011;16507;51.046;6.406;2022-07-03T12:44:42;0.50;;;0.50;;
29574;SDS011;16507;51.046;6.406;2022-07-03T12:47:18;0.47;;;0.40;;
29574;SDS011;16507;51.046;6.406;2022-07-03T12:49:44;0.80;;;0.43;;
29574;SDS011;16507;51.046;6.406;2022-07-03T12:52:11;4.82;;;0.50;;
29574;SDS011;16507;51.046;6.406;2022-07-03T12:54:37;4.13;;;0.60;;
29574;SDS011;16507;51.046;6.406;2022-07-03T12:57:07;1.70;;;0.50;;
29574;SDS011;16507;51.046;6.406;2022-07-03T13:00:27;2.67;;;0.73;;
29574;SDS011;16507;51.046;6.406;2022-07-03T13:02:47;1.65;;;0.40;;
29574;SDS011;16507;51.046;6.406;2022-07-03T13:05:15;2.88;;;0.40;;
29574;SDS011;16507;51.046;6.406;2022-07-03T13:07:46;2.65;;;0.30;;
29574;SDS011;16507;51.046;6.406;2022-07-03T13:10:13;0.30;;;0.30;;
29574;SDS011;16507;51.046;6.406;2022-07-03T13:15:18;0.30;;;0.30;;
29574;SDS011;16507;51.046;6.406;2022-07-03T13:20:23;1.77;;;0.40;;
29574;SDS011;16507;51.046;6.406;2022-07-03T13:22:50;0.63;;;0.30;;
29574;SDS011;16507;51.046;6.406;2022-07-03T13:25:16;0.93;;;0.45;;
29574;SDS011;16507;51.046;6.406;2022-07-03T13:27:42;0.60;;;0.43;;
29574;SDS011;16507;51.046;6.406;2022-07-03T13:30:10;0.35;;;0.30;;
29574;SDS011;16507;51.046;6.406;2022-07-03T13:32:43;1.42;;;0.40;;
29574;SDS011;16507;51.046;6.406;2022-07-03T13:35:09;0.40;;;0.40;;
29574;SDS011;16507;51.046;6.406;2022-07-03T13:37:35;2.50;;;0.30;;
29574;SDS011;16507;51.046;6.406;2022-07-03T13:40:02;1.00;;;0.40;;
29574;SDS011;16507;51.046;6.406;2022-07-03T13:42:28;0.25;;;0.20;;
29574;SDS011;16507;51.046;6.406;2022-07-03T13:44:54;0.90;;;0.50;;
29574;SDS011;16507;51.046;6.406;2022-07-03T13:47:20;3.30;;;0.75;;
29574;SDS011;16507;51.046;6.406;2022-07-03T13:49:45;0.32;;;0.25;;
29574;SDS011;16507;51.046;6.406;2022-07-03T13:52:11;0.30;;;0.30;;
29574;SDS011;16507;51.046;6.406;2022-07-03T13:54:37;0.32;;;0.20;;
29574;SDS011;16507;51.046;6.406;2022-07-03T13:57:03;4.03;;;0.43;;
29574;SDS011;16507;51.046;6.406;2022-07-03T13:59:29;0.70;;;0.40;;
29574;SDS011;16507;51.046;6.406;2022-07-03T14:01:57;0.70;;;0.30;;
29574;SDS011;16507;51.046;6.406;2022-07-03T14:04:23;2.55;;;0.50;;
29574;SDS011;16507;51.046;6.406;2022-07-03T14:06:49;1.90;;;0.50;;
29574;SDS011;16507;51.046;6.406;2022-07-03T14:09:15;3.40;;;0.40;;
29574;SDS011;16507;51.046;6.406;2022-07-03T14:11:41;0.50;;;0.40;;
29574;SDS011;16507;51.046;6.406;2022-07-03T14:14:06;0.30;;;0.22;;
29574;SDS011;16507;51.046;6.406;2022-07-03T14:16:32;0.50;;;0.30;;
29574;SDS011;16507;51.046;6.406;2022-07-03T14:18:58;2.35;;;0.30;;
29574;SDS011;16507;51.046;6.406;2022-07-03T14:21:24;1.20;;;0.40;;
29574;SDS011;16507;51.046;6.406;2022-07-03T14:23:50;0.35;;;0.30;;
29574;SDS011;16507;51.046;6.406;2022-07-03T14:26:15;1.77;;;0.40;;
29574;SDS011;16507;51.046;6.406;2022-07-03T14:29:04;7.13;;;0.57;;
29574;SDS011;16507;51.046;6.406;2022-07-03T14:31:48;1.50;;;0.30;;
29574;SDS011;16507;51.046;6.406;2022-07-03T14:34:33;0.73;;;0.40;;
29574;SDS011;16507;51.046;6.406;2022-07-03T14:36:58;2.20;;;0.50;;
29574;SDS011;16507;51.046;6.406;2022-07-03T14:39:24;1.30;;;0.43;;
29574;SDS011;16507;51.046;6.406;2022-07-03T14:41:52;1.13;;;0.75;;
29574;SDS011;16507;51.046;6.406;2022-07-03T14:44:18;1.02;;;0.43;;
29574;SDS011;16507;51.046;6.406;2022-07-03T14:46:49;3.72;;;0.47;;
29574;SDS011;16507;51.046;6.406;2022-07-03T14:49:15;2.25;;;0.40;;
29574;SDS011;16507;51.046;6.406;2022-07-03T14:51:40;3.40;;;0.52;;
29574;SDS011;16507;51.046;6.406;2022-07-03T14:54:06;3.10;;;0.45;;
29574;SDS011;16507;51.046;6.406;2022-07-03T14:56:32;0.82;;;0.40;;
29574;SDS011;16507;51.046;6.406;2022-07-03T14:59:07;1.67;;;0.30;;
29574;SDS011;16507;51.046;6.406;2022-07-03T15:01:37;2.28;;;0.40;;
29574;SDS011;16507;51.046;6.406;2022-07-03T15:04:07;2.08;;;0.57;;
29574;SDS011;16507;51.046;6.406;2022-07-03T15:06:42;0.95;;;0.50;;
29574;SDS011;16507;51.046;6.406;2022-07-03T15:09:09;2.40;;;0.32;;
29574;SDS011;16507;51.046;6.406;2022-07-03T15:11:47;2.47;;;0.40;;
29574;SDS011;16507;51.046;6.406;2022-07-03T15:14:38;0.77;;;0.40;;
29574;SDS011;16507;51.046;6.406;2022-07-03T15:17:07;0.40;;;0.40;;
29574;SDS011;16507;51.046;6.406;2022-07-03T15:19:33;7.57;;;0.40;;
29574;SDS011;16507;51.046;6.406;2022-07-03T15:22:00;0.88;;;0.38;;
29574;SDS011;16507;51.046;6.406;2022-07-03T15:24:28;4.35;;;1.08;;
29574;SDS011;16507;51.046;6.406;2022-07-03T15:26:55;0.80;;;0.50;;
29574;SDS011;16507;51.046;6.406;2022-07-03T15:29:22;2.90;;;0.50;;
29574;SDS011;16507;51.046;6.406;2022-07-03T15:31:48;2.75;;;0.40;;
29574;SDS011;16507;51.046;6.406;2022-07-03T15:34:14;1.70;;;0.43;;
29574;SDS011;16507;51.046;6.406;2022-07-03T15:36:44;0.75;;;0.30;;
29574;SDS011;16507;51.046;6.406;2022-07-03T15:39:59;1.52;;;0.68;;
29574;SDS011;16507;51.046;6.406;2022-07-03T15:42:13;0.47;;;0.40;;
29574;SDS011;16507;51.046;6.406;2022-07-03T15:44:50;2.30;;;0.40;;
29574;SDS011;16507;51.046;6.406;2022-07-03T15:50:14;3.40;;;0.32;;
29574;SDS011;16507;51.046;6.406;2022-07-03T15:53:04;0.77;;;0.40;;
29574;SDS011;16507;51.046;6.406;2022-07-03T15:55:33;0.90;;;0.30;;
29574;SDS011;16507;51.046;6.406;2022-07-03T15:58:05;0.90;;;0.45;;
29574;SDS011;16507;51.046;6.406;2022-07-03T16:00:34;2.40;;;0.40;;
29574;SDS011;16507;51.046;6.406;2022-07-03T16:06:07;0.60;;;0.25;;
29574;SDS011;16507;51.046;6.406;2022-07-03T16:08:34;0.55;;;0.30;;
29574;SDS011;16507;51.046;6.406;2022-07-03T16:11:08;0.52;;;0.30;;
29574;SDS011;16507;51.046;6.406;2022-07-03T16:13:34;2.30;;;0.30;;
29574;SDS011;16507;51.046;6.406;2022-07-03T16:16:00;1.00;;;0.32;;
29574;SDS011;16507;51.046;6.406;2022-07-03T16:18:27;0.70;;;0.28;;
29574;SDS011;16507;51.046;6.406;2022-07-03T16:20:53;1.17;;;0.32;;
29574;SDS011;16507;51.046;6.406;2022-07-03T16:23:19;4.68;;;0.30;;
29574;SDS011;16507;51.046;6.406;2022-07-03T16:25:46;0.80;;;0.40;;
29574;SDS011;16507;51.046;6.406;2022-07-03T16:28:11;0.30;;;0.20;;
29574;SDS011;16507;51.046;6.406;2022-07-03T16:30:47;2.20;;;0.20;;
29574;SDS011;16507;51.046;6.406;2022-07-03T16:33:20;0.75;;;0.40;;
29574;SDS011;16507;51.046;6.406;2022-07-03T16:35:52;2.30;;;0.30;;
29574;SDS011;16507;51.046;6.406;2022-07-03T16:38:29;0.52;;;0.30;;
29574;SDS011;16507;51.046;6.406;2022-07-03T16:41:08;1.77;;;0.20;;